sensor_id;sensor_type;location;lat;lon;timestamp;P1;durP1;ratioP1;P2;durP2;ratioP2
30743;SDS011;17486;46.738;7.622;2023-07-20T00:00:22;6.30;;;4.93;;
30743;SDS011;17486;46.738;7.622;2023-07-20T00:02:51;6.63;;;5.03;;
30743;SDS011;17486;46.738;7.622;2023-07-20T00:05:16;5.13;;;4.53;;
30743;SDS011;17486;46.738;7.622;2023-07-20T00:07:43;6.25;;;4.63;;
30743;SDS011;17486;46.738;7.622;2023-07-20T00:10:09;6.35;;;4.28;;
30743;SDS011;17486;46.738;7.622;2023-07-20T00:12:34;5.47;;;4.90;;
30743;SDS011;17486;46.738;7.622;2023-07-20T00:15:00;5.50;;;4.82;;
30743;SDS011;17486;46.738;7.622;2023-07-20T00:17:25;7.13;;;4.60;;
30743;SDS011;17486;46.738;7.622;2023-07-20T00:19:51;5.60;;;5.05;;
30743;SDS011;17486;46.738;7.622;2023-07-20T00:22:16;7.30;;;4.85;;
30743;SDS011;17486;46.738;7.622;2023-07-20T00:24:42;4.93;;;4.35;;
30743;SDS011;17486;46.738;7.622;2023-07-20T00:27:07;4.82;;;4.30;;
30743;SDS011;17486;46.738;7.622;2023-07-20T00:29:33;6.15;;;4.80;;
30743;SDS011;17486;46.738;7.622;2023-07-20T00:31:58;5.88;;;4.70;;
30743;SDS011;17486;46.738;7.622;2023-07-20T00:34:24;5.68;;;4.65;;
30743;SDS011;17486;46.738;7.622;2023-07-20T00:36:50;5.88;;;4.65;;
30743;SDS011;17486;46.738;7.622;2023-07-20T00:39:15;6.10;;;4.90;;
30743;SDS011;17486;46.738;7.622;2023-07-20T00:41:41;6.20;;;4.53;;
30743;SDS011;17486;46.738;7.622;2023-07-20T00:44:06;5.78;;;5.07;;
30743;SDS011;17486;46.738;7.622;2023-07-20T00:46:31;6.25;;;5.13;;
30743;SDS011;17486;46.738;7.622;2023-07-20T00:48:57;9.93;;;4.82;;
30743;SDS011;17486;46.738;7.622;2023-07-20T00:51:23;6.53;;;5.07;;
30743;SDS011;17486;46.738;7.622;2023-07-20T00:53:51;6.55;;;5.57;;
30743;SDS011;17486;46.738;7.622;2023-07-20T00:56:17;6.18;;;5.07;;
30743;SDS011;17486;46.738;7.622;2023-07-20T00:58:43;5.68;;;4.85;;
30743;SDS011;17486;46.738;7.622;2023-07-20T01:01:08;6.00;;;4.85;;
30743;SDS011;17486;46.738;7.622;2023-07-20T01:03:34;6.25;;;4.95;;
30743;SDS011;17486;46.738;7.622;2023-07-20T01:06:03;7.88;;;5.13;;
30743;SDS011;17486;46.738;7.622;2023-07-20T01:08:38;7.07;;;4.85;;
30743;SDS011;17486;46.738;7.622;2023-07-20T01:11:13;7.40;;;5.35;;
30743;SDS011;17486;46.738;7.622;2023-07-20T01:13:43;7.13;;;5.07;;
30743;SDS011;17486;46.738;7.622;2023-07-20T01:16:10;6.60;;;5.20;;
30743;SDS011;17486;46.738;7.622;2023-07-20T01:18:35;6.22;;;5.10;;
30743;SDS011;17486;46.738;7.622;2023-07-20T01:21:06;6.65;;;5.28;;
30743;SDS011;17486;46.738;7.622;2023-07-20T01:24:00;6.65;;;5.45;;
30743;SDS011;17486;46.738;7.622;2023-07-20T01:32:19;7.00;;;5.32;;
30743;SDS011;17486;46.738;7.622;2023-07-20T01:34:49;7.10;;;5.20;;
30743;SDS011;17486;46.738;7.622;2023-07-20T01:37:17;5.68;;;5.07;;
30743;SDS011;17486;46.738;7.622;2023-07-20T01:39:45;6.20;;;5.35;;
30743;SDS011;17486;46.738;7.622;2023-07-20T01:42:11;6.10;;;5.25;;
30743;SDS011;17486;46.738;7.622;2023-07-20T01:44:37;7.45;;;5.22;;
30743;SDS011;17486;46.738;7.622;2023-07-20T01:47:03;7.93;;;5.43;;
30743;SDS011;17486;46.738;7.622;2023-07-20T01:49:29;8.45;;;5.22;;
30743;SDS011;17486;46.738;7.622;2023-07-20T01:51:54;7.38;;;5.65;;
30743;SDS011;17486;46.738;7.622;2023-07-20T01:54:19;5.60;;;4.82;;
30743;SDS011;17486;46.738;7.622;2023-07-20T01:56:46;7.25;;;5.15;;
30743;SDS011;17486;46.738;7.622;2023-07-20T01:59:11;7.30;;;5.20;;
30743;SDS011;17486;46.738;7.622;2023-07-20T02:01:37;9.35;;;5.80;;
30743;SDS011;17486;46.738;7.622;2023-07-20T02:04:02;6.22;;;5.63;;
30743;SDS011;17486;46.738;7.622;2023-07-20T02:06:28;11.18;;;6.18;;
30743;SDS011;17486;46.738;7.622;2023-07-20T02:08:53;8.10;;;5.40;;
30743;SDS011;17486;46.738;7.622;2023-07-20T02:11:19;7.28;;;5.40;;
30743;SDS011;17486;46.738;7.622;2023-07-20T02:13:44;8.77;;;5.57;;
30743;SDS011;17486;46.738;7.622;2023-07-20T02:16:10;8.88;;;5.70;;
30743;SDS011;17486;46.738;7.622;2023-07-20T02:18:36;7.13;;;5.32;;
30743;SDS011;17486;46.738;7.622;2023-07-20T02:21:01;5.85;;;5.18;;
30743;SDS011;17486;46.738;7.622;2023-07-20T02:23:27;6.53;;;5.40;;
30743;SDS011;17486;46.738;7.622;2023-07-20T02:25:52;6.80;;;5.28;;
30743;SDS011;17486;46.738;7.622;2023-07-20T02:28:18;6.50;;;5.80;;
30743;SDS011;17486;46.738;7.622;2023-07-20T02:30:43;9.73;;;5.50;;
30743;SDS011;17486;46.738;7.622;2023-07-20T02:33:08;7.22;;;5.30;;
30743;SDS011;17486;46.738;7.622;2023-07-20T02:35:34;5.72;;;4.93;;
30743;SDS011;17486;46.738;7.622;2023-07-20T02:37:59;6.45;;;5.22;;
30743;SDS011;17486;46.738;7.622;2023-07-20T02:40:25;8.23;;;5.80;;
30743;SDS011;17486;46.738;7.622;2023-07-20T02:42:50;5.95;;;5.22;;
30743;SDS011;17486;46.738;7.622;2023-07-20T02:45:16;7.60;;;5.80;;
30743;SDS011;17486;46.738;7.622;2023-07-20T02:47:41;5.78;;;4.97;;
30743;SDS011;17486;46.738;7.622;2023-07-20T02:50:07;8.88;;;5.30;;
30743;SDS011;17486;46.738;7.622;2023-07-20T02:52:33;6.20;;;5.20;;
30743;SDS011;17486;46.738;7.622;2023-07-20T02:54:58;6.55;;;5.38;;
30743;SDS011;17486;46.738;7.622;2023-07-20T02:57:24;5.70;;;5.10;;
30743;SDS011;17486;46.738;7.622;2023-07-20T02:59:49;9.27;;;5.78;;
30743;SDS011;17486;46.738;7.622;2023-07-20T03:02:15;7.72;;;5.47;;
30743;SDS011;17486;46.738;7.622;2023-07-20T03:04:40;7.05;;;5.57;;
30743;SDS011;17486;46.738;7.622;2023-07-20T03:07:06;7.50;;;5.38;;
30743;SDS011;17486;46.738;7.622;2023-07-20T03:09:32;7.07;;;5.28;;
30743;SDS011;17486;46.738;7.622;2023-07-20T03:11:58;5.95;;;5.05;;
30743;SDS011;17486;46.738;7.622;2023-07-20T03:14:23;6.38;;;5.15;;
30743;SDS011;17486;46.738;7.622;2023-07-20T03:16:49;7.72;;;5.10;;
30743;SDS011;17486;46.738;7.622;2023-07-20T03:19:14;6.28;;;4.93;;
30743;SDS011;17486;46.738;7.622;2023-07-20T03:21:40;6.15;;;4.88;;
30743;SDS011;17486;46.738;7.622;2023-07-20T03:24:06;7.72;;;6.05;;
30743;SDS011;17486;46.738;7.622;2023-07-20T03:26:33;6.60;;;5.35;;
30743;SDS011;17486;46.738;7.622;2023-07-20T03:28:59;8.18;;;5.32;;
30743;SDS011;17486;46.738;7.622;2023-07-20T03:31:24;6.07;;;5.05;;
30743;SDS011;17486;46.738;7.622;2023-07-20T03:33:50;6.13;;;4.85;;
30743;SDS011;17486;46.738;7.622;2023-07-20T03:36:15;6.47;;;5.55;;
30743;SDS011;17486;46.738;7.622;2023-07-20T03:38:41;7.18;;;5.07;;
30743;SDS011;17486;46.738;7.622;2023-07-20T03:41:06;7.15;;;6.18;;
30743;SDS011;17486;46.738;7.622;2023-07-20T03:43:31;7.32;;;5.07;;
30743;SDS011;17486;46.738;7.622;2023-07-20T03:45:57;5.65;;;4.80;;
30743;SDS011;17486;46.738;7.622;2023-07-20T03:48:23;6.75;;;5.50;;
30743;SDS011;17486;46.738;7.622;2023-07-20T03:50:50;7.63;;;5.60;;
30743;SDS011;17486;46.738;7.622;2023-07-20T03:53:16;6.90;;;5.45;;
30743;SDS011;17486;46.738;7.622;2023-07-20T03:55:44;6.07;;;5.03;;
30743;SDS011;17486;46.738;7.622;2023-07-20T03:58:17;8.55;;;6.30;;
30743;SDS011;17486;46.738;7.622;2023-07-20T04:00:46;7.50;;;6.43;;
30743;SDS011;17486;46.738;7.622;2023-07-20T04:03:13;7.60;;;6.25;;
30743;SDS011;17486;46.738;7.622;2023-07-20T04:05:39;7.72;;;6.60;;
30743;SDS011;17486;46.738;7.622;2023-07-20T04:08:04;6.28;;;5.20;;
30743;SDS011;17486;46.738;7.622;2023-07-20T04:10:30;6.65;;;5.80;;
30743;SDS011;17486;46.738;7.622;2023-07-20T04:12:55;6.20;;;5.13;;
30743;SDS011;17486;46.738;7.622;2023-07-20T04:15:20;9.05;;;5.13;;
30743;SDS011;17486;46.738;7.622;2023-07-20T04:17:46;7.50;;;5.53;;
30743;SDS011;17486;46.738;7.622;2023-07-20T04:20:11;7.28;;;5.43;;
30743;SDS011;17486;46.738;7.622;2023-07-20T04:22:37;6.32;;;5.38;;
30743;SDS011;17486;46.738;7.622;2023-07-20T04:25:03;6.43;;;5.20;;
30743;SDS011;17486;46.738;7.622;2023-07-20T04:27:29;8.07;;;5.40;;
30743;SDS011;17486;46.738;7.622;2023-07-20T04:29:54;7.28;;;5.20;;
30743;SDS011;17486;46.738;7.622;2023-07-20T04:32:20;8.10;;;5.05;;
30743;SDS011;17486;46.738;7.622;2023-07-20T04:34:45;7.88;;;4.80;;
30743;SDS011;17486;46.738;7.622;2023-07-20T04:37:10;5.80;;;5.20;;
30743;SDS011;17486;46.738;7.622;2023-07-20T04:39:36;6.90;;;5.38;;
30743;SDS011;17486;46.738;7.622;2023-07-20T04:42:01;9.18;;;5.60;;
30743;SDS011;17486;46.738;7.622;2023-07-20T04:44:27;6.80;;;6.13;;
30743;SDS011;17486;46.738;7.622;2023-07-20T04:46:52;8.65;;;5.68;;
30743;SDS011;17486;46.738;7.622;2023-07-20T04:49:17;7.68;;;6.07;;
30743;SDS011;17486;46.738;7.622;2023-07-20T04:51:43;6.13;;;5.53;;
30743;SDS011;17486;46.738;7.622;2023-07-20T04:54:08;6.18;;;5.45;;
30743;SDS011;17486;46.738;7.622;2023-07-20T04:56:33;7.90;;;5.30;;
30743;SDS011;17486;46.738;7.622;2023-07-20T04:58:59;6.25;;;5.28;;
30743;SDS011;17486;46.738;7.622;2023-07-20T05:01:25;7.75;;;5.47;;
30743;SDS011;17486;46.738;7.622;2023-07-20T05:03:51;7.65;;;5.68;;
30743;SDS011;17486;46.738;7.622;2023-07-20T05:06:17;9.50;;;5.63;;
30743;SDS011;17486;46.738;7.622;2023-07-20T05:08:43;6.05;;;5.30;;
30743;SDS011;17486;46.738;7.622;2023-07-20T05:11:08;6.45;;;5.68;;
30743;SDS011;17486;46.738;7.622;2023-07-20T05:13:34;9.02;;;6.07;;
30743;SDS011;17486;46.738;7.622;2023-07-20T05:15:59;8.38;;;6.22;;
30743;SDS011;17486;46.738;7.622;2023-07-20T05:18:25;8.10;;;5.75;;
30743;SDS011;17486;46.738;7.622;2023-07-20T05:20:50;7.05;;;5.65;;
30743;SDS011;17486;46.738;7.622;2023-07-20T05:23:19;8.32;;;5.50;;
30743;SDS011;17486;46.738;7.622;2023-07-20T05:25:56;6.70;;;5.97;;
30743;SDS011;17486;46.738;7.622;2023-07-20T05:28:23;7.55;;;5.80;;
30743;SDS011;17486;46.738;7.622;2023-07-20T05:30:49;6.18;;;5.57;;
30743;SDS011;17486;46.738;7.622;2023-07-20T05:33:16;6.07;;;5.28;;
30743;SDS011;17486;46.738;7.622;2023-07-20T05:35:42;10.90;;;5.70;;
30743;SDS011;17486;46.738;7.622;2023-07-20T05:38:08;6.25;;;5.47;;
30743;SDS011;17486;46.738;7.622;2023-07-20T05:40:35;9.00;;;5.28;;
30743;SDS011;17486;46.738;7.622;2023-07-20T05:43:02;6.05;;;5.03;;
30743;SDS011;17486;46.738;7.622;2023-07-20T05:45:28;8.45;;;5.22;;
30743;SDS011;17486;46.738;7.622;2023-07-20T05:47:53;11.40;;;5.70;;
30743;SDS011;17486;46.738;7.622;2023-07-20T05:50:19;10.52;;;5.30;;
30743;SDS011;17486;46.738;7.622;2023-07-20T05:52:44;6.32;;;5.28;;
30743;SDS011;17486;46.738;7.622;2023-07-20T05:55:09;6.03;;;5.38;;
30743;SDS011;17486;46.738;7.622;2023-07-20T05:57:35;5.30;;;4.63;;
30743;SDS011;17486;46.738;7.622;2023-07-20T06:00:01;6.80;;;5.07;;
30743;SDS011;17486;46.738;7.622;2023-07-20T06:02:27;7.90;;;5.63;;
30743;SDS011;17486;46.738;7.622;2023-07-20T06:04:53;5.50;;;4.95;;
30743;SDS011;17486;46.738;7.622;2023-07-20T06:07:19;6.68;;;5.10;;
30743;SDS011;17486;46.738;7.622;2023-07-20T06:09:45;7.63;;;5.47;;
30743;SDS011;17486;46.738;7.622;2023-07-20T06:12:10;6.80;;;5.10;;
30743;SDS011;17486;46.738;7.622;2023-07-20T06:14:35;5.97;;;5.38;;
30743;SDS011;17486;46.738;7.622;2023-07-20T06:17:01;6.22;;;4.97;;
30743;SDS011;17486;46.738;7.622;2023-07-20T06:19:27;7.20;;;5.10;;
30743;SDS011;17486;46.738;7.622;2023-07-20T06:21:52;9.43;;;5.55;;
30743;SDS011;17486;46.738;7.622;2023-07-20T06:24:17;7.97;;;5.13;;
30743;SDS011;17486;46.738;7.622;2023-07-20T06:26:43;6.85;;;5.10;;
30743;SDS011;17486;46.738;7.622;2023-07-20T06:29:08;6.00;;;5.40;;
30743;SDS011;17486;46.738;7.622;2023-07-20T06:31:34;9.40;;;5.60;;
30743;SDS011;17486;46.738;7.622;2023-07-20T06:34:00;8.80;;;5.85;;
30743;SDS011;17486;46.738;7.622;2023-07-20T06:36:26;7.50;;;5.47;;
30743;SDS011;17486;46.738;7.622;2023-07-20T06:38:52;6.25;;;5.53;;
30743;SDS011;17486;46.738;7.622;2023-07-20T06:41:18;7.45;;;5.50;;
30743;SDS011;17486;46.738;7.622;2023-07-20T06:43:44;8.00;;;5.30;;
30743;SDS011;17486;46.738;7.622;2023-07-20T06:46:09;8.60;;;5.57;;
30743;SDS011;17486;46.738;7.622;2023-07-20T06:48:35;6.18;;;5.25;;
30743;SDS011;17486;46.738;7.622;2023-07-20T06:51:00;11.82;;;5.22;;
30743;SDS011;17486;46.738;7.622;2023-07-20T06:53:25;9.13;;;5.10;;
30743;SDS011;17486;46.738;7.622;2023-07-20T06:55:51;6.88;;;5.10;;
30743;SDS011;17486;46.738;7.622;2023-07-20T06:58:16;7.35;;;5.63;;
30743;SDS011;17486;46.738;7.622;2023-07-20T07:00:42;11.45;;;5.93;;
30743;SDS011;17486;46.738;7.622;2023-07-20T07:03:08;13.75;;;6.25;;
30743;SDS011;17486;46.738;7.622;2023-07-20T07:05:37;7.68;;;5.80;;
30743;SDS011;17486;46.738;7.622;2023-07-20T07:08:03;7.45;;;5.05;;
30743;SDS011;17486;46.738;7.622;2023-07-20T07:10:31;5.85;;;5.20;;
30743;SDS011;17486;46.738;7.622;2023-07-20T07:12:56;7.65;;;5.15;;
30743;SDS011;17486;46.738;7.622;2023-07-20T07:15:21;6.50;;;5.07;;
30743;SDS011;17486;46.738;7.622;2023-07-20T07:17:47;10.57;;;5.43;;
30743;SDS011;17486;46.738;7.622;2023-07-20T07:20:13;8.88;;;5.75;;
30743;SDS011;17486;46.738;7.622;2023-07-20T07:22:38;6.28;;;5.30;;
30743;SDS011;17486;46.738;7.622;2023-07-20T07:25:04;5.80;;;5.20;;
30743;SDS011;17486;46.738;7.622;2023-07-20T07:27:29;6.43;;;5.47;;
30743;SDS011;17486;46.738;7.622;2023-07-20T07:29:55;9.43;;;5.20;;
30743;SDS011;17486;46.738;7.622;2023-07-20T07:32:20;8.95;;;5.60;;
30743;SDS011;17486;46.738;7.622;2023-07-20T07:34:46;7.07;;;5.35;;
30743;SDS011;17486;46.738;7.622;2023-07-20T07:37:12;6.38;;;4.93;;
30743;SDS011;17486;46.738;7.622;2023-07-20T07:39:38;6.80;;;4.85;;
30743;SDS011;17486;46.738;7.622;2023-07-20T07:42:04;6.03;;;4.95;;
30743;SDS011;17486;46.738;7.622;2023-07-20T07:44:30;6.63;;;4.60;;
30743;SDS011;17486;46.738;7.622;2023-07-20T07:46:55;5.53;;;4.45;;
30743;SDS011;17486;46.738;7.622;2023-07-20T07:49:21;5.63;;;4.38;;
30743;SDS011;17486;46.738;7.622;2023-07-20T07:51:46;6.25;;;4.32;;
30743;SDS011;17486;46.738;7.622;2023-07-20T07:54:12;8.43;;;4.55;;
30743;SDS011;17486;46.738;7.622;2023-07-20T07:56:37;6.72;;;5.00;;
30743;SDS011;17486;46.738;7.622;2023-07-20T07:59:02;6.05;;;4.25;;
30743;SDS011;17486;46.738;7.622;2023-07-20T08:01:28;5.60;;;4.95;;
30743;SDS011;17486;46.738;7.622;2023-07-20T08:03:54;7.80;;;4.28;;
30743;SDS011;17486;46.738;7.622;2023-07-20T08:06:19;6.28;;;4.72;;
30743;SDS011;17486;46.738;7.622;2023-07-20T08:08:44;6.18;;;4.32;;
30743;SDS011;17486;46.738;7.622;2023-07-20T08:11:10;5.75;;;3.90;;
30743;SDS011;17486;46.738;7.622;2023-07-20T08:13:36;6.63;;;4.00;;
30743;SDS011;17486;46.738;7.622;2023-07-20T08:16:02;5.18;;;4.25;;
30743;SDS011;17486;46.738;7.622;2023-07-20T08:18:27;6.13;;;3.47;;
30743;SDS011;17486;46.738;7.622;2023-07-20T08:20:53;5.13;;;3.88;;
30743;SDS011;17486;46.738;7.622;2023-07-20T08:23:19;6.65;;;4.43;;
30743;SDS011;17486;46.738;7.622;2023-07-20T08:25:45;5.50;;;4.18;;
30743;SDS011;17486;46.738;7.622;2023-07-20T08:28:10;6.32;;;4.00;;
30743;SDS011;17486;46.738;7.622;2023-07-20T08:30:46;4.18;;;3.65;;
30743;SDS011;17486;46.738;7.622;2023-07-20T08:33:14;7.35;;;3.45;;
30743;SDS011;17486;46.738;7.622;2023-07-20T08:35:40;4.95;;;3.95;;
30743;SDS011;17486;46.738;7.622;2023-07-20T08:38:06;4.65;;;3.42;;
30743;SDS011;17486;46.738;7.622;2023-07-20T08:40:32;4.93;;;3.65;;
30743;SDS011;17486;46.738;7.622;2023-07-20T08:42:59;3.88;;;2.80;;
30743;SDS011;17486;46.738;7.622;2023-07-20T08:45:28;4.18;;;2.60;;
30743;SDS011;17486;46.738;7.622;2023-07-20T08:47:55;3.90;;;2.88;;
30743;SDS011;17486;46.738;7.622;2023-07-20T08:50:21;4.93;;;2.78;;
30743;SDS011;17486;46.738;7.622;2023-07-20T08:52:47;2.75;;;2.50;;
30743;SDS011;17486;46.738;7.622;2023-07-20T08:55:15;4.43;;;2.97;;
30743;SDS011;17486;46.738;7.622;2023-07-20T08:57:40;4.30;;;2.70;;
30743;SDS011;17486;46.738;7.622;2023-07-20T09:00:11;4.18;;;2.97;;
30743;SDS011;17486;46.738;7.622;2023-07-20T09:02:38;3.28;;;2.85;;
30743;SDS011;17486;46.738;7.622;2023-07-20T09:05:07;3.22;;;2.80;;
30743;SDS011;17486;46.738;7.622;2023-07-20T09:07:35;4.00;;;3.25;;
30743;SDS011;17486;46.738;7.622;2023-07-20T09:10:01;3.60;;;2.70;;
30743;SDS011;17486;46.738;7.622;2023-07-20T09:12:31;5.78;;;3.20;;
30743;SDS011;17486;46.738;7.622;2023-07-20T09:15:00;2.78;;;2.58;;
30743;SDS011;17486;46.738;7.622;2023-07-20T09:17:26;3.75;;;2.83;;
30743;SDS011;17486;46.738;7.622;2023-07-20T09:19:52;4.25;;;2.92;;
30743;SDS011;17486;46.738;7.622;2023-07-20T09:22:17;5.88;;;2.90;;
30743;SDS011;17486;46.738;7.622;2023-07-20T09:24:43;2.97;;;2.40;;
30743;SDS011;17486;46.738;7.622;2023-07-20T09:27:08;4.03;;;2.65;;
30743;SDS011;17486;46.738;7.622;2023-07-20T09:29:42;4.18;;;2.75;;
30743;SDS011;17486;46.738;7.622;2023-07-20T09:32:13;5.18;;;2.90;;
30743;SDS011;17486;46.738;7.622;2023-07-20T09:34:44;5.38;;;2.50;;
30743;SDS011;17486;46.738;7.622;2023-07-20T09:37:10;4.72;;;2.58;;
30743;SDS011;17486;46.738;7.622;2023-07-20T09:39:45;3.00;;;2.70;;
30743;SDS011;17486;46.738;7.622;2023-07-20T09:42:13;3.75;;;3.20;;
30743;SDS011;17486;46.738;7.622;2023-07-20T09:44:39;3.47;;;2.70;;
30743;SDS011;17486;46.738;7.622;2023-07-20T09:47:08;3.28;;;2.90;;
30743;SDS011;17486;46.738;7.622;2023-07-20T09:49:38;6.63;;;3.35;;
30743;SDS011;17486;46.738;7.622;2023-07-20T09:52:05;5.43;;;3.03;;
30743;SDS011;17486;46.738;7.622;2023-07-20T09:54:31;4.93;;;3.35;;
30743;SDS011;17486;46.738;7.622;2023-07-20T09:56:57;3.75;;;3.25;;
30743;SDS011;17486;46.738;7.622;2023-07-20T09:59:23;4.78;;;2.90;;
30743;SDS011;17486;46.738;7.622;2023-07-20T10:01:49;3.55;;;2.72;;
30743;SDS011;17486;46.738;7.622;2023-07-20T10:04:18;7.35;;;3.60;;
30743;SDS011;17486;46.738;7.622;2023-07-20T10:06:46;5.10;;;3.08;;
30743;SDS011;17486;46.738;7.622;2023-07-20T10:09:15;3.33;;;2.88;;
30743;SDS011;17486;46.738;7.622;2023-07-20T10:11:42;3.47;;;3.08;;
30743;SDS011;17486;46.738;7.622;2023-07-20T10:14:16;6.07;;;2.78;;
30743;SDS011;17486;46.738;7.622;2023-07-20T10:16:50;3.95;;;2.50;;
30743;SDS011;17486;46.738;7.622;2023-07-20T10:19:33;4.40;;;2.95;;
30743;SDS011;17486;46.738;7.622;2023-07-20T10:22:03;4.93;;;2.67;;
30743;SDS011;17486;46.738;7.622;2023-07-20T10:24:35;3.35;;;2.63;;
30743;SDS011;17486;46.738;7.622;2023-07-20T10:27:02;3.33;;;2.80;;
30743;SDS011;17486;46.738;7.622;2023-07-20T10:29:28;4.05;;;2.60;;
30743;SDS011;17486;46.738;7.622;2023-07-20T10:31:55;4.60;;;3.00;;
30743;SDS011;17486;46.738;7.622;2023-07-20T10:34:21;4.63;;;2.90;;
30743;SDS011;17486;46.738;7.622;2023-07-20T10:36:47;3.83;;;2.92;;
30743;SDS011;17486;46.738;7.622;2023-07-20T10:39:23;4.57;;;2.83;;
30743;SDS011;17486;46.738;7.622;2023-07-20T10:41:50;5.38;;;2.90;;
30743;SDS011;17486;46.738;7.622;2023-07-20T10:44:18;4.20;;;2.92;;
30743;SDS011;17486;46.738;7.622;2023-07-20T10:46:45;3.28;;;2.78;;
30743;SDS011;17486;46.738;7.622;2023-07-20T10:49:11;4.03;;;2.80;;
30743;SDS011;17486;46.738;7.622;2023-07-20T10:51:40;3.88;;;2.70;;
30743;SDS011;17486;46.738;7.622;2023-07-20T10:54:54;3.53;;;2.90;;
30743;SDS011;17486;46.738;7.622;2023-07-20T10:56:55;3.78;;;2.90;;
30743;SDS011;17486;46.738;7.622;2023-07-20T10:59:41;3.38;;;2.47;;
30743;SDS011;17486;46.738;7.622;2023-07-20T11:02:06;3.28;;;2.90;;
30743;SDS011;17486;46.738;7.622;2023-07-20T11:07:08;5.35;;;2.63;;
30743;SDS011;17486;46.738;7.622;2023-07-20T11:09:35;6.85;;;2.80;;
30743;SDS011;17486;46.738;7.622;2023-07-20T11:14:42;4.60;;;2.80;;
30743;SDS011;17486;46.738;7.622;2023-07-20T11:17:11;4.63;;;2.88;;
30743;SDS011;17486;46.738;7.622;2023-07-20T11:19:40;5.25;;;3.13;;
30743;SDS011;17486;46.738;7.622;2023-07-20T11:22:06;4.68;;;2.85;;
30743;SDS011;17486;46.738;7.622;2023-07-20T11:24:37;4.57;;;2.90;;
30743;SDS011;17486;46.738;7.622;2023-07-20T11:27:04;3.17;;;2.88;;
30743;SDS011;17486;46.738;7.622;2023-07-20T11:29:30;3.42;;;2.50;;
30743;SDS011;17486;46.738;7.622;2023-07-20T11:31:56;2.85;;;2.53;;
30743;SDS011;17486;46.738;7.622;2023-07-20T11:34:22;4.30;;;2.78;;
30743;SDS011;17486;46.738;7.622;2023-07-20T11:36:48;3.80;;;2.88;;
30743;SDS011;17486;46.738;7.622;2023-07-20T11:39:15;4.00;;;2.90;;
30743;SDS011;17486;46.738;7.622;2023-07-20T11:41:46;3.80;;;2.63;;
30743;SDS011;17486;46.738;7.622;2023-07-20T11:44:13;5.07;;;2.78;;
30743;SDS011;17486;46.738;7.622;2023-07-20T11:46:40;5.78;;;3.10;;
30743;SDS011;17486;46.738;7.622;2023-07-20T11:49:07;4.60;;;3.03;;
30743;SDS011;17486;46.738;7.622;2023-07-20T11:51:33;3.42;;;2.78;;
30743;SDS011;17486;46.738;7.622;2023-07-20T11:54:00;4.57;;;2.70;;
30743;SDS011;17486;46.738;7.622;2023-07-20T11:56:27;3.63;;;2.90;;
30743;SDS011;17486;46.738;7.622;2023-07-20T11:58:55;3.67;;;3.22;;
30743;SDS011;17486;46.738;7.622;2023-07-20T12:01:24;4.00;;;3.22;;
30743;SDS011;17486;46.738;7.622;2023-07-20T12:03:53;3.40;;;3.05;;
30743;SDS011;17486;46.738;7.622;2023-07-20T12:06:22;5.22;;;2.70;;
30743;SDS011;17486;46.738;7.622;2023-07-20T12:08:49;5.55;;;3.08;;
30743;SDS011;17486;46.738;7.622;2023-07-20T12:11:29;4.00;;;3.13;;
30743;SDS011;17486;46.738;7.622;2023-07-20T12:14:02;3.67;;;3.28;;
30743;SDS011;17486;46.738;7.622;2023-07-20T12:16:28;3.63;;;3.20;;
30743;SDS011;17486;46.738;7.622;2023-07-20T12:21:33;4.40;;;3.33;;
30743;SDS011;17486;46.738;7.622;2023-07-20T12:24:02;3.28;;;2.97;;
30743;SDS011;17486;46.738;7.622;2023-07-20T12:26:31;4.47;;;2.75;;
30743;SDS011;17486;46.738;7.622;2023-07-20T12:28:57;5.85;;;2.78;;
30743;SDS011;17486;46.738;7.622;2023-07-20T12:31:23;5.60;;;2.83;;
30743;SDS011;17486;46.738;7.622;2023-07-20T12:33:52;4.93;;;2.72;;
30743;SDS011;17486;46.738;7.622;2023-07-20T12:36:20;2.95;;;2.70;;
30743;SDS011;17486;46.738;7.622;2023-07-20T12:38:46;4.88;;;3.10;;
30743;SDS011;17486;46.738;7.622;2023-07-20T12:41:11;3.38;;;3.05;;
30743;SDS011;17486;46.738;7.622;2023-07-20T12:43:38;4.15;;;2.97;;
30743;SDS011;17486;46.738;7.622;2023-07-20T12:46:05;6.20;;;3.00;;
30743;SDS011;17486;46.738;7.622;2023-07-20T12:48:30;3.53;;;3.17;;
30743;SDS011;17486;46.738;7.622;2023-07-20T12:50:56;3.88;;;3.25;;
30743;SDS011;17486;46.738;7.622;2023-07-20T12:53:21;5.30;;;3.10;;
30743;SDS011;17486;46.738;7.622;2023-07-20T12:55:47;3.00;;;2.70;;
30743;SDS011;17486;46.738;7.622;2023-07-20T12:58:12;3.85;;;3.03;;
30743;SDS011;17486;46.738;7.622;2023-07-20T13:00:38;4.38;;;2.97;;
30743;SDS011;17486;46.738;7.622;2023-07-20T13:03:04;4.88;;;3.08;;
30743;SDS011;17486;46.738;7.622;2023-07-20T13:05:30;3.55;;;2.90;;
30743;SDS011;17486;46.738;7.622;2023-07-20T13:07:57;3.72;;;3.03;;
30743;SDS011;17486;46.738;7.622;2023-07-20T13:10:23;3.70;;;2.88;;
30743;SDS011;17486;46.738;7.622;2023-07-20T13:12:48;4.95;;;3.35;;
30743;SDS011;17486;46.738;7.622;2023-07-20T13:15:14;6.00;;;3.00;;
30743;SDS011;17486;46.738;7.622;2023-07-20T13:17:39;3.63;;;2.92;;
30743;SDS011;17486;46.738;7.622;2023-07-20T13:20:06;8.82;;;3.30;;
30743;SDS011;17486;46.738;7.622;2023-07-20T13:22:34;5.63;;;2.90;;
30743;SDS011;17486;46.738;7.622;2023-07-20T13:24:59;3.88;;;2.80;;
30743;SDS011;17486;46.738;7.622;2023-07-20T13:27:25;3.38;;;3.03;;
30743;SDS011;17486;46.738;7.622;2023-07-20T13:29:51;4.40;;;3.20;;
30743;SDS011;17486;46.738;7.622;2023-07-20T13:32:16;3.78;;;3.13;;
30743;SDS011;17486;46.738;7.622;2023-07-20T13:34:45;4.43;;;3.00;;
30743;SDS011;17486;46.738;7.622;2023-07-20T13:37:11;4.82;;;3.35;;
30743;SDS011;17486;46.738;7.622;2023-07-20T13:39:37;5.38;;;3.08;;
30743;SDS011;17486;46.738;7.622;2023-07-20T13:42:03;4.03;;;3.40;;
30743;SDS011;17486;46.738;7.622;2023-07-20T13:44:30;5.10;;;3.17;;
30743;SDS011;17486;46.738;7.622;2023-07-20T13:46:59;5.82;;;2.78;;
30743;SDS011;17486;46.738;7.622;2023-07-20T13:49:25;7.15;;;2.90;;
30743;SDS011;17486;46.738;7.622;2023-07-20T13:51:50;3.38;;;3.08;;
30743;SDS011;17486;46.738;7.622;2023-07-20T13:54:15;4.30;;;3.08;;
30743;SDS011;17486;46.738;7.622;2023-07-20T13:56:41;4.00;;;3.60;;
30743;SDS011;17486;46.738;7.622;2023-07-20T13:59:06;5.28;;;3.08;;
30743;SDS011;17486;46.738;7.622;2023-07-20T14:01:32;5.13;;;3.30;;
30743;SDS011;17486;46.738;7.622;2023-07-20T14:03:59;4.55;;;2.90;;
30743;SDS011;17486;46.738;7.622;2023-07-20T14:06:25;5.65;;;2.85;;
30743;SDS011;17486;46.738;7.622;2023-07-20T14:08:50;3.45;;;2.95;;
30743;SDS011;17486;46.738;7.622;2023-07-20T14:11:18;6.05;;;3.10;;
30743;SDS011;17486;46.738;7.622;2023-07-20T14:13:43;5.97;;;3.30;;
30743;SDS011;17486;46.738;7.622;2023-07-20T14:16:08;4.53;;;2.92;;
30743;SDS011;17486;46.738;7.622;2023-07-20T14:18:34;5.70;;;3.05;;
30743;SDS011;17486;46.738;7.622;2023-07-20T14:21:00;3.28;;;2.92;;
30743;SDS011;17486;46.738;7.622;2023-07-20T14:23:28;4.35;;;3.20;;
30743;SDS011;17486;46.738;7.622;2023-07-20T14:25:53;4.70;;;3.30;;
30743;SDS011;17486;46.738;7.622;2023-07-20T14:28:19;3.35;;;2.97;;
30743;SDS011;17486;46.738;7.622;2023-07-20T14:30:45;3.92;;;3.03;;
30743;SDS011;17486;46.738;7.622;2023-07-20T14:33:10;6.25;;;2.97;;
30743;SDS011;17486;46.738;7.622;2023-07-20T14:35:36;3.22;;;2.92;;
30743;SDS011;17486;46.738;7.622;2023-07-20T14:38:02;4.78;;;3.17;;
30743;SDS011;17486;46.738;7.622;2023-07-20T14:40:27;3.05;;;2.72;;
30743;SDS011;17486;46.738;7.622;2023-07-20T14:42:55;4.25;;;2.90;;
30743;SDS011;17486;46.738;7.622;2023-07-20T14:45:20;4.28;;;2.90;;
30743;SDS011;17486;46.738;7.622;2023-07-20T14:47:46;4.28;;;2.85;;
30743;SDS011;17486;46.738;7.622;2023-07-20T14:50:14;3.15;;;2.83;;
30743;SDS011;17486;46.738;7.622;2023-07-20T14:52:39;5.03;;;3.15;;
30743;SDS011;17486;46.738;7.622;2023-07-20T14:55:04;5.82;;;3.00;;
30743;SDS011;17486;46.738;7.622;2023-07-20T14:57:30;4.20;;;3.33;;